Time;durP1;ratioP1;P1;durP2;ratioP2;P2;SDS_P1;SDS_P2;PMS_P1;PMS_P2;Temp;Humidity;BMP_temperature;BMP_pressure;BME280_temperature;BME280_humidity;BME280_pressure;Samples;Min_cycle;Max_cycle;Signal;HPM_P1;HPM_P2
2021/11/23 00:00:18;;;;;;;7.30;1.42;;;;;;;-6.37;76.57;99629.28;4850775;29;20061;-74
2021/11/23 00:02:44;;;;;;;6.65;1.45;;;;;;;-6.33;76.74;99630.91;4868475;29;20061;-75
2021/11/23 00:05:11;;;;;;;5.22;1.35;;;;;;;-6.19;75.75;99647.13;4872613;29;20085;-74
2021/11/23 00:07:38;;;;;;;6.53;2.72;;;;;;;-6.20;76.17;99637.53;4870073;29;20120;-75
2021/11/23 00:10:05;;;;;;;7.20;1.42;;;;;;;-6.33;76.00;99644.06;4854888;29;20068;-74
2021/11/23 00:12:32;;;;;;;7.50;1.70;;;;;;;-6.43;76.84;99643.50;4871338;29;20079;-74
2021/11/23 00:14:58;;;;;;;5.55;1.48;;;;;;;-6.53;76.77;99639.41;4887526;29;20065;-75
2021/11/23 00:17:24;;;;;;;7.18;2.20;;;;;;;-6.53;77.62;99641.19;4888831;29;20422;-74
2021/11/23 00:19:50;;;;;;;8.30;2.20;;;;;;;-6.55;77.46;99646.47;4887548;29;20060;-75
2021/11/23 00:22:16;;;;;;;8.77;1.98;;;;;;;-6.75;77.81;99623.38;4871961;29;20057;-74
2021/11/23 00:24:41;;;;;;;12.00;2.75;;;;;;;-6.62;77.98;99651.06;4872214;29;20119;-73
2021/11/23 00:27:07;;;;;;;8.00;2.47;;;;;;;-6.70;78.54;99647.75;4887258;29;20094;-73
2021/11/23 00:29:34;;;;;;;15.05;2.45;;;;;;;-6.71;78.34;99646.03;4887840;29;20084;-72
2021/11/23 00:32:02;;;;;;;9.93;2.42;;;;;;;-6.96;78.62;99606.47;4888296;29;20053;-73
2021/11/23 00:34:29;;;;;;;10.02;2.22;;;;;;;-6.76;78.88;99645.34;4870034;29;20123;-73
2021/11/23 00:36:55;;;;;;;10.80;2.45;;;;;;;-6.74;78.77;99635.63;4868987;29;20067;-74
2021/11/23 00:39:21;;;;;;;9.27;2.40;;;;;;;-6.77;78.42;99646.22;4868616;29;20066;-75
2021/11/23 00:41:47;;;;;;;8.80;3.05;;;;;;;-6.75;78.25;99648.81;4852316;29;20303;-72
2021/11/23 00:44:15;;;;;;;10.90;2.17;;;;;;;-6.76;78.75;99653.22;4872660;29;20060;-74
2021/11/23 00:46:42;;;;;;;10.23;2.53;;;;;;;-6.78;78.63;99644.50;4866944;29;20052;-72
2021/11/23 00:49:09;;;;;;;9.13;2.60;;;;;;;-6.92;79.07;99636.13;4836144;29;20231;-75
2021/11/23 00:51:35;;;;;;;8.68;1.92;;;;;;;-6.88;79.14;99637.78;4851854;29;20063;-74
2021/11/23 00:54:01;;;;;;;9.95;2.15;;;;;;;-7.00;79.45;99623.22;4851280;29;20061;-73
2021/11/23 00:56:27;;;;;;;9.25;2.40;;;;;;;-6.83;79.31;99635.91;4850743;29;20059;-74
2021/11/23 00:58:53;;;;;;;8.88;2.10;;;;;;;-6.94;79.46;99637.97;4866390;29;20060;-74
2021/11/23 01:01:19;;;;;;;7.80;2.30;;;;;;;-6.89;79.33;99638.69;4867219;29;20060;-73
2021/11/23 01:03:45;;;;;;;9.23;2.00;;;;;;;-6.91;79.74;99637.84;4858264;29;20049;-74
2021/11/23 01:06:11;;;;;;;9.13;2.63;;;;;;;-6.91;79.59;99645.72;4866870;29;20109;-74
2021/11/23 01:08:39;;;;;;;9.30;2.00;;;;;;;-7.15;79.42;99610.50;4851592;29;20076;-73
2021/11/23 01:11:06;;;;;;;5.25;1.45;;;;;;;-6.83;78.95;99651.66;4882251;29;20065;-75
2021/11/23 01:13:33;;;;;;;7.68;2.42;;;;;;;-6.89;78.58;99646.56;4865168;29;20041;-74
2021/11/23 01:15:59;;;;;;;6.18;2.00;;;;;;;-6.85;78.78;99640.31;4867082;29;20088;-74
2021/11/23 01:18:25;;;;;;;7.93;2.13;;;;;;;-6.82;78.60;99654.22;4852807;29;20053;-73
2021/11/23 01:20:51;;;;;;;6.35;1.70;;;;;;;-6.85;78.65;99640.31;4852132;29;20057;-75
2021/11/23 01:23:17;;;;;;;8.73;2.20;;;;;;;-6.94;78.70;99648.47;4871953;29;20049;-74
2021/11/23 01:25:43;;;;;;;7.32;1.77;;;;;;;-7.01;79.14;99636.41;4885022;29;20120;-74
2021/11/23 01:28:09;;;;;;;8.02;1.90;;;;;;;-7.01;78.75;99634.63;4884706;29;20060;-74
2021/11/23 01:30:34;;;;;;;8.02;2.15;;;;;;;-7.12;78.99;99624.41;4884162;29;20049;-73
2021/11/23 01:33:00;;;;;;;6.60;1.70;;;;;;;-7.09;79.19;99634.84;4886475;29;20064;-74
2021/11/23 01:35:27;;;;;;;8.32;2.03;;;;;;;-6.99;79.06;99650.34;4902521;29;20570;-75
2021/11/23 01:37:55;;;;;;;5.97;1.73;;;;;;;-7.01;78.82;99637.25;4870675;29;20060;-74
2021/11/23 01:40:21;;;;;;;7.25;1.55;;;;;;;-7.09;79.21;99634.00;4903591;29;20086;-75
2021/11/23 01:42:48;;;;;;;7.88;2.00;;;;;;;-7.01;79.22;99641.66;4885015;29;20108;-73
2021/11/23 01:45:15;;;;;;;9.18;2.05;;;;;;;-6.99;79.30;99639.84;4866292;29;20109;-73
2021/11/23 01:47:41;;;;;;;8.00;2.25;;;;;;;-7.01;79.62;99652.16;4865863;29;20529;-74
2021/11/23 01:50:09;;;;;;;9.18;2.08;;;;;;;-7.06;79.73;99645.28;4881064;29;20125;-75
2021/11/23 01:52:36;;;;;;;7.30;1.67;;;;;;;-7.09;79.94;99644.50;4866128;29;20040;-74
2021/11/23 01:55:06;;;;;;;8.13;2.40;;;;;;;-7.09;80.05;99639.25;4899100;29;20064;-73
2021/11/23 01:57:33;;;;;;;12.20;2.20;;;;;;;-7.12;79.79;99645.44;4884177;29;20044;-73
2021/11/23 01:59:59;;;;;;;7.13;2.00;;;;;;;-7.14;80.73;99654.25;4853434;29;20151;-73
2021/11/23 02:02:25;;;;;;;8.07;2.30;;;;;;;-7.16;80.44;99643.78;4885115;29;20087;-74
2021/11/23 02:04:51;;;;;;;6.97;1.90;;;;;;;-7.36;80.42;99610.16;4870197;29;20495;-74
2021/11/23 02:07:19;;;;;;;10.07;3.50;;;;;;;-7.34;80.78;99623.28;4902602;29;20080;-74
2021/11/23 02:09:45;;;;;;;9.48;2.67;;;;;;;-7.25;80.78;99644.03;4869165;29;20072;-75
2021/11/23 02:12:11;;;;;;;9.18;2.53;;;;;;;-7.25;81.29;99644.03;4885260;29;20140;-74
2021/11/23 02:14:38;;;;;;;11.55;2.50;;;;;;;-7.29;81.55;99650.25;4868568;29;20084;-75
2021/11/23 02:17:05;;;;;;;8.38;2.83;;;;;;;-7.34;82.11;99644.28;4868212;29;20566;-73
2021/11/23 02:19:31;;;;;;;8.18;2.20;;;;;;;-7.52;82.72;99622.84;4883801;29;20146;-74
2021/11/23 02:21:57;;;;;;;10.82;2.83;;;;;;;-7.48;82.63;99642.00;4881925;29;20056;-75
2021/11/23 02:24:23;;;;;;;11.18;3.00;;;;;;;-7.53;83.19;99638.66;4852006;29;20060;-73
2021/11/23 02:26:49;;;;;;;14.73;3.55;;;;;;;-7.58;82.21;99628.25;4869047;29;20092;-74
2021/11/23 02:29:15;;;;;;;12.27;2.97;;;;;;;-7.50;82.89;99637.69;4869331;29;20064;-73
2021/11/23 02:31:41;;;;;;;10.32;3.13;;;;;;;-7.57;83.41;99643.09;4885943;29;20060;-75
2021/11/23 02:34:07;;;;;;;13.30;3.15;;;;;;;-7.55;83.53;99641.28;4883936;29;20069;-73
2021/11/23 02:36:35;;;;;;;8.00;2.67;;;;;;;-7.53;83.19;99644.75;4867865;29;20084;-73
2021/11/23 02:39:03;;;;;;;10.50;2.83;;;;;;;-7.52;83.30;99635.97;4883239;29;20087;-73
2021/11/23 02:41:29;;;;;;;13.43;2.97;;;;;;;-7.49;82.97;99644.66;4868939;29;20048;-75
2021/11/23 02:43:55;;;;;;;8.93;2.40;;;;;;;-7.60;83.11;99630.06;4851793;29;20116;-74
2021/11/23 02:46:21;;;;;;;11.23;2.55;;;;;;;-7.47;82.84;99653.34;4867737;29;20196;-71
2021/11/23 02:48:47;;;;;;;9.18;2.08;;;;;;;-7.52;83.12;99650.84;4867134;29;20052;-73
2021/11/23 02:53:39;;;;;;;6.20;1.70;;;;;;;-7.53;83.59;99649.16;4886150;29;20099;-74
2021/11/23 02:56:05;;;;;;;10.02;2.75;;;;;;;-7.61;83.75;99644.06;4870903;29;20056;-75
2021/11/23 02:58:33;;;;;;;7.93;2.22;;;;;;;-7.67;83.56;99638.97;4886556;29;20064;-73
2021/11/23 03:01:00;;;;;;;7.15;2.25;;;;;;;-7.86;83.69;99603.59;4855165;29;20105;-73
2021/11/23 03:03:27;;;;;;;8.20;2.25;;;;;;;-7.61;83.16;99649.31;4885064;29;20072;-74
2021/11/23 03:05:54;;;;;;;7.85;2.70;;;;;;;-8.03;83.69;99578.63;4885956;29;20064;-74
2021/11/23 03:08:21;;;;;;;11.10;1.85;;;;;;;-7.63;83.87;99648.50;4853018;29;20061;-74
2021/11/23 03:10:47;;;;;;;8.60;2.30;;;;;;;-7.62;84.13;99654.59;4869258;29;20139;-74
2021/11/23 03:13:13;;;;;;;8.25;2.22;;;;;;;-7.65;84.27;99650.28;4854238;29;20056;-74
2021/11/23 03:15:39;;;;;;;10.63;2.85;;;;;;;-7.68;84.20;99650.34;4869835;29;20063;-74
2021/11/23 03:18:06;;;;;;;7.32;2.10;;;;;;;-7.62;83.93;99650.22;4883819;29;20507;-75
2021/11/23 03:20:32;;;;;;;7.63;2.13;;;;;;;-7.63;84.23;99651.13;4884425;29;20045;-73
2021/11/23 03:22:59;;;;;;;6.95;2.10;;;;;;;-7.99;84.25;99582.03;4869367;29;20057;-74
2021/11/23 03:25:26;;;;;;;7.65;2.17;;;;;;;-7.62;84.30;99655.47;4903837;29;20061;-73
2021/11/23 03:27:52;;;;;;;9.43;2.60;;;;;;;-7.70;83.59;99631.19;4868800;29;20387;-75
2021/11/23 03:30:23;;;;;;;10.82;2.10;;;;;;;-7.54;84.01;99658.75;4852109;29;20071;-74
2021/11/23 03:32:51;;;;;;;7.82;2.15;;;;;;;-7.46;83.66;99657.69;4886335;29;20088;-75
2021/11/23 03:35:18;;;;;;;8.60;2.17;;;;;;;-7.43;83.42;99673.38;4869944;29;20117;-76
2021/11/23 03:37:45;;;;;;;8.07;2.35;;;;;;;-7.46;83.70;99673.44;4881969;29;20076;-74
2021/11/23 03:40:11;;;;;;;12.75;2.80;;;;;;;-7.50;83.52;99669.19;4867619;29;20077;-75
2021/11/23 03:42:37;;;;;;;10.18;2.25;;;;;;;-7.57;84.11;99669.34;4870477;29;20105;-75
2021/11/23 03:45:04;;;;;;;11.73;2.88;;;;;;;-7.82;83.73;99627.09;4857408;29;20061;-71
2021/11/23 03:47:31;;;;;;;11.00;2.13;;;;;;;-7.61;84.09;99667.69;4886998;29;20061;-73
2021/11/23 03:49:58;;;;;;;11.90;2.47;;;;;;;-7.60;84.97;99661.56;4871904;29;20487;-75
2021/11/23 03:52:24;;;;;;;8.63;2.20;;;;;;;-7.65;84.08;99652.91;4871673;29;20060;-74
2021/11/23 03:54:50;;;;;;;9.10;2.38;;;;;;;-7.83;84.77;99640.25;4854410;29;20080;-74
2021/11/23 03:57:19;;;;;;;9.50;2.55;;;;;;;-8.13;84.56;99592.00;4854786;29;20583;-74
2021/11/23 03:59:48;;;;;;;10.73;2.35;;;;;;;-7.75;84.90;99654.06;4855859;29;20157;-76
2021/11/23 04:02:20;;;;;;;14.35;3.35;;;;;;;-7.81;84.69;99646.31;4887364;29;20056;-73
2021/11/23 04:04:46;;;;;;;9.48;2.67;;;;;;;-7.68;84.86;99665.25;4883561;29;20080;-76
2021/11/23 04:07:12;;;;;;;9.13;2.53;;;;;;;-7.65;84.31;99659.94;4838702;29;20068;-75
2021/11/23 04:09:39;;;;;;;12.35;2.40;;;;;;;-7.63;84.76;99659.00;4886076;29;20456;-74
2021/11/23 04:12:06;;;;;;;8.55;2.25;;;;;;;-7.67;84.62;99667.00;4884859;29;20065;-72
2021/11/23 04:14:31;;;;;;;8.63;2.30;;;;;;;-7.69;84.87;99664.38;4851326;29;20089;-74
2021/11/23 04:16:59;;;;;;;6.70;2.13;;;;;;;-7.78;85.08;99659.38;4822511;29;20529;-70
2021/11/23 04:19:28;;;;;;;7.90;2.40;;;;;;;-7.75;85.42;99664.56;4863792;29;20051;-75
2021/11/23 04:21:56;;;;;;;11.57;2.72;;;;;;;-7.78;85.21;99659.38;4867342;29;20060;-74
2021/11/23 04:24:23;;;;;;;8.32;2.42;;;;;;;-7.76;85.86;99662.81;4882657;29;20169;-77
2021/11/23 04:26:49;;;;;;;8.57;2.50;;;;;;;-7.80;85.55;99650.66;4876472;29;20061;-74
2021/11/23 04:29:15;;;;;;;10.10;2.35;;;;;;;-7.72;84.97;99659.22;4882274;29;20372;-75
2021/11/23 04:31:41;;;;;;;10.02;2.53;;;;;;;-7.63;84.74;99669.50;4885935;29;20108;-74
2021/11/23 04:34:10;;;;;;;12.20;3.05;;;;;;;-7.58;85.00;99672.84;4871125;29;20049;-75
2021/11/23 04:37:07;;;;;;;12.00;2.65;;;;;;;-7.71;84.16;99639.97;4875769;29;20106;-75
2021/11/23 04:40:38;;;;;;;10.63;3.15;;;;;;;-7.46;84.30;99673.44;4882415;29;20076;-75
2021/11/23 04:43:09;;;;;;;9.88;3.10;;;;;;;-7.93;83.56;99596.75;4890126;29;20060;-75
2021/11/23 04:46:20;;;;;;;10.15;2.58;;;;;;;-7.35;83.56;99679.28;4874890;29;20053;-76
2021/11/23 04:56:34;;;;;;;10.50;2.38;;;;;;;-7.20;83.31;99668.41;4906197;29;19931;-75
2021/11/23 04:59:00;;;;;;;8.00;2.08;;;;;;;-7.12;83.09;99678.72;4893861;29;20060;-76
2021/11/23 05:01:26;;;;;;;11.45;2.55;;;;;;;-7.18;83.10;99653.47;4861822;29;20152;-75
2021/11/23 05:03:55;;;;;;;8.98;2.72;;;;;;;-7.01;82.46;99678.44;4878624;29;20060;-75
2021/11/23 05:06:21;;;;;;;3.38;0.95;;;;;;;-6.94;82.81;99672.97;4894466;29;20053;-75
2021/11/23 05:08:48;;;;;;;8.85;3.30;;;;;;;-6.87;82.38;99677.16;4894612;29;20124;-75
2021/11/23 05:11:14;;;;;;;11.23;2.60;;;;;;;-6.82;81.64;99677.03;4893403;29;20053;-76
2021/11/23 05:13:40;;;;;;;13.07;2.80;;;;;;;-6.75;81.84;99683.84;4875524;29;20052;-75
2021/11/23 05:16:06;;;;;;;11.05;3.35;;;;;;;-6.72;81.53;99686.38;4876920;29;20063;-74
2021/11/23 05:18:32;;;;;;;11.15;2.30;;;;;;;-6.64;81.39;99700.16;4861205;29;20057;-75
2021/11/23 05:20:58;;;;;;;8.60;2.63;;;;;;;-6.67;81.76;99683.63;4889806;29;20128;-76
2021/11/23 05:23:24;;;;;;;16.77;3.17;;;;;;;-6.56;81.54;99692.91;4876075;29;20053;-75
2021/11/23 05:25:50;;;;;;;10.52;2.20;;;;;;;-6.56;81.20;99692.91;4889605;29;20066;-75
2021/11/23 05:28:15;;;;;;;14.15;3.00;;;;;;;-6.59;81.36;99682.50;4874505;29;20111;-75
2021/11/23 05:30:41;;;;;;;12.20;3.10;;;;;;;-6.50;81.25;99691.91;4843290;29;20052;-76
2021/11/23 05:33:07;;;;;;;13.57;2.47;;;;;;;-6.57;80.63;99664.91;4858529;29;20156;-75
2021/11/23 05:35:33;;;;;;;18.73;3.40;;;;;;;-6.32;81.10;99690.50;4907035;29;20159;-75
2021/11/23 05:37:59;;;;;;;15.45;2.55;;;;;;;-6.30;80.30;99688.69;4875215;29;20057;-76
2021/11/23 05:40:26;;;;;;;11.40;2.20;;;;;;;-6.37;80.78;99679.25;4890579;29;20087;-76
2021/11/23 05:42:52;;;;;;;14.10;2.38;;;;;;;-6.26;81.24;99695.56;4875517;29;20087;-75
2021/11/23 05:45:19;;;;;;;11.68;2.70;;;;;;;-6.40;81.00;99687.22;4875129;29;20057;-74
2021/11/23 05:47:47;;;;;;;11.38;2.67;;;;;;;-6.47;81.34;99688.31;4891534;29;20298;-75
2021/11/23 05:50:13;;;;;;;9.55;2.53;;;;;;;-6.59;81.42;99686.88;4878793;29;20500;-75
2021/11/23 05:52:40;;;;;;;10.27;3.00;;;;;;;-6.69;82.28;99691.56;4862022;29;20064;-74
2021/11/23 05:55:06;;;;;;;13.00;2.50;;;;;;;-6.61;82.50;99709.75;4873472;29;20060;-74
2021/11/23 05:57:32;;;;;;;14.10;2.83;;;;;;;-6.64;82.13;99704.56;4871881;29;20059;-75
2021/11/23 05:59:58;;;;;;;14.98;3.33;;;;;;;-6.65;82.08;99702.84;4858952;29;20060;-74
2021/11/23 06:02:24;;;;;;;17.23;2.95;;;;;;;-6.64;82.26;99707.19;4857387;29;20048;-75
2021/11/23 06:04:50;;;;;;;14.43;3.50;;;;;;;-6.62;82.56;99703.63;4890792;29;20094;-74
2021/11/23 06:07:16;;;;;;;14.60;3.72;;;;;;;-6.59;81.94;99708.78;4875575;29;20115;-75
2021/11/23 06:09:42;;;;;;;20.48;3.10;;;;;;;-6.67;81.85;99694.13;4889018;29;20083;-74
2021/11/23 06:12:08;;;;;;;9.30;3.08;;;;;;;-6.46;81.70;99688.28;4848782;29;20092;-75
2021/11/23 06:14:38;;;;;;;14.43;2.95;;;;;;;-4.45;75.41;99701.00;4847809;29;20173;-75
2021/11/23 06:17:06;;;;;;;11.68;2.50;;;;;;;-3.70;71.11;99710.47;4863552;29;20060;-75
2021/11/23 06:19:32;;;;;;;11.48;2.65;;;;;;;-2.85;67.69;99711.38;4859712;29;20091;-74
2021/11/23 06:21:58;;;;;;;8.68;2.30;;;;;;;-2.27;65.58;99692.91;4875600;29;20088;-75
2021/11/23 06:24:24;;;;;;;7.70;2.20;;;;;;;-1.47;62.57;99715.69;4874569;29;20056;-75
2021/11/23 06:26:50;;;;;;;11.10;2.53;;;;;;;-2.19;64.02;99713.78;4888322;29;20059;-75
2021/11/23 06:29:16;;;;;;;12.88;2.78;;;;;;;-0.61;60.08;99695.47;4892588;29;20056;-75
2021/11/23 06:31:42;;;;;;;9.43;2.60;;;;;;;-1.34;60.96;99700.91;4859247;29;20108;-76
2021/11/23 06:34:09;;;;;;;12.00;2.60;;;;;;;-2.08;62.79;99718.59;4873209;29;20152;-74
2021/11/23 06:36:36;;;;;;;8.73;2.70;;;;;;;-1.38;61.52;99709.09;4888150;29;20086;-75
2021/11/23 06:39:08;;;;;;;12.23;3.08;;;;;;;-2.35;63.29;99700.34;4843424;29;20052;-74
2021/11/23 06:41:35;;;;;;;13.80;3.00;;;;;;;-1.58;62.61;99702.09;4872787;29;20068;-74
2021/11/23 06:44:04;;;;;;;9.15;2.40;;;;;;;-1.49;60.78;99669.84;4890646;29;20049;-75
2021/11/23 06:46:31;;;;;;;9.10;2.30;;;;;;;-2.36;64.24;99701.28;4892600;29;20064;-75
2021/11/23 06:48:58;;;;;;;13.02;4.10;;;;;;;-2.06;64.80;99708.78;4887092;29;20079;-75
2021/11/23 06:51:24;;;;;;;14.52;3.38;;;;;;;-0.21;58.33;99667.69;4869112;29;20530;-75
2021/11/23 06:53:50;;;;;;;13.27;3.10;;;;;;;0.09;56.55;99690.84;4884975;29;20219;-76
2021/11/23 06:56:16;;;;;;;11.45;3.10;;;;;;;-0.23;57.38;99697.91;4855269;29;20129;-76
2021/11/23 06:58:42;;;;;;;15.00;3.60;;;;;;;-1.24;60.05;99710.13;4870572;29;20071;-75
2021/11/23 07:01:09;;;;;;;11.93;3.45;;;;;;;-2.02;63.48;99720.94;4887878;29;20065;-74
2021/11/23 07:03:34;;;;;;;12.48;3.05;;;;;;;-2.81;65.21;99701.53;4856783;29;20085;-75
2021/11/23 07:06:00;;;;;;;8.80;2.95;;;;;;;-3.62;69.23;99703.09;4872298;29;20112;-74
2021/11/23 07:08:26;;;;;;;15.05;3.33;;;;;;;-3.79;70.88;99714.34;4841734;29;20055;-75
2021/11/23 07:10:55;;;;;;;11.07;3.25;;;;;;;-3.15;70.52;99719.66;4874054;29;20071;-75
2021/11/23 07:13:21;;;;;;;11.60;3.00;;;;;;;-1.14;62.38;99712.31;4871839;29;20071;-75
2021/11/23 07:15:47;;;;;;;11.88;2.92;;;;;;;0.61;57.54;99725.16;4875787;29;20052;-75
2021/11/23 07:18:14;;;;;;;14.32;2.90;;;;;;;1.15;56.07;99715.81;4883460;29;20067;-76
2021/11/23 07:20:40;;;;;;;9.57;2.53;;;;;;;-1.37;62.22;99727.56;4881449;29;20067;-75
2021/11/23 07:23:07;;;;;;;12.25;3.72;;;;;;;-2.43;66.02;99723.66;4842473;29;20060;-75
2021/11/23 07:25:33;;;;;;;12.20;3.90;;;;;;;-2.77;68.09;99725.13;4844308;29;20067;-75
2021/11/23 07:31:19;;;;;;;11.70;3.65;;;;;;;-3.38;69.70;99689.81;5944785;23;20033;-75
2021/11/23 07:33:47;;;;;;;9.82;3.40;;;;;;;-2.57;68.08;99731.34;4841596;29;20061;-75
2021/11/23 07:36:13;;;;;;;11.35;3.28;;;;;;;-2.00;66.31;99745.56;4827470;29;20060;-75
2021/11/23 07:38:39;;;;;;;12.68;3.33;;;;;;;-1.79;65.28;99741.06;4889037;29;20065;-74
2021/11/23 07:41:05;;;;;;;12.75;3.92;;;;;;;-2.20;66.34;99720.84;4853152;29;20087;-76
2021/11/23 07:43:31;;;;;;;17.88;4.75;;;;;;;-2.19;66.08;99738.47;4855276;29;20060;-75
2021/11/23 07:46:00;;;;;;;12.60;4.50;;;;;;;-2.34;67.31;99746.22;4870333;29;20049;-74
2021/11/23 07:48:28;;;;;;;15.48;3.55;;;;;;;-2.73;68.25;99739.94;4875731;29;20064;-75
2021/11/23 07:50:54;;;;;;;12.60;3.78;;;;;;;-2.81;69.57;99736.78;4889970;29;20057;-76
2021/11/23 07:53:20;;;;;;;15.48;3.65;;;;;;;-3.08;70.42;99727.34;4840781;29;20124;-75
2021/11/23 07:55:49;;;;;;;13.70;4.03;;;;;;;-3.21;70.90;99730.50;4856855;29;20124;-75
2021/11/23 07:58:16;;;;;;;17.10;3.78;;;;;;;-3.04;71.35;99747.44;4871735;29;20112;-74
2021/11/23 08:00:43;;;;;;;17.13;4.65;;;;;;;-0.30;61.56;99738.06;4869614;29;20142;-75
2021/11/23 08:03:10;;;;;;;17.23;3.70;;;;;;;-1.66;64.59;99736.06;4883460;29;20425;-75
2021/11/23 08:05:38;;;;;;;13.38;4.22;;;;;;;0.37;59.68;99732.72;4867477;29;20060;-74
2021/11/23 08:08:05;;;;;;;15.15;4.13;;;;;;;0.89;57.44;99740.44;4853631;29;20067;-75
2021/11/23 08:10:35;;;;;;;24.95;4.75;;;;;;;0.31;59.91;99731.25;4867277;29;20493;-76
2021/11/23 08:13:01;;;;;;;16.40;4.60;;;;;;;1.89;54.98;99719.38;4882734;29;20061;-77
2021/11/23 08:15:27;;;;;;;14.30;4.80;;;;;;;3.52;50.31;99737.22;4855289;29;20068;-75
2021/11/23 08:17:53;;;;;;;16.77;4.30;;;;;;;5.24;46.49;99714.19;4854720;29;20128;-75
2021/11/23 08:20:19;;;;;;;16.20;4.53;;;;;;;5.60;44.43;99734.69;4855334;29;20048;-75
2021/11/23 08:22:46;;;;;;;17.42;4.03;;;;;;;6.56;43.38;99734.31;4841561;29;20076;-76
2021/11/23 08:25:12;;;;;;;20.58;4.78;;;;;;;5.42;43.41;99718.16;4875713;29;20120;-76
2021/11/23 08:27:39;;;;;;;13.48;4.20;;;;;;;5.13;44.22;99724.88;4876835;29;20064;-76
2021/11/23 08:30:07;;;;;;;15.88;4.85;;;;;;;5.23;45.28;99715.19;4874773;29;20507;-76
2021/11/23 08:32:33;;;;;;;15.27;4.32;;;;;;;6.36;42.47;99733.22;4888863;29;20057;-75
2021/11/23 08:35:00;;;;;;;19.20;4.30;;;;;;;6.74;40.96;99697.03;4856974;29;20108;-74
2021/11/23 08:37:29;;;;;;;16.35;4.55;;;;;;;7.09;41.33;99696.78;4845423;29;20110;-75
2021/11/23 08:40:03;;;;;;;20.33;4.70;;;;;;;8.81;37.65;99723.19;4856506;29;20145;-76
2021/11/23 08:42:29;;;;;;;13.82;3.95;;;;;;;8.43;36.91;99719.34;4875190;29;20152;-76
2021/11/23 08:44:55;;;;;;;18.25;3.55;;;;;;;6.26;41.43;99719.66;4879350;29;20064;-76
2021/11/23 08:47:22;;;;;;;14.65;3.88;;;;;;;5.11;43.47;99705.34;4847361;29;20053;-77
2021/11/23 08:51:10;;;;;;;17.42;4.30;;;;;;;3.06;48.14;99678.03;4876107;29;20041;-76
2021/11/23 08:53:32;;;;;;;15.20;3.50;;;;;;;2.24;50.47;99711.00;4817675;29;20518;-77
2021/11/23 08:55:58;;;;;;;20.90;4.13;;;;;;;1.29;52.89;99668.88;4840629;29;20062;-77
2021/11/23 08:58:24;;;;;;;14.98;3.10;;;;;;;0.99;54.37;99715.00;4840026;29;20061;-76
2021/11/23 09:00:50;;;;;;;12.68;3.97;;;;;;;0.56;56.58;99728.09;4872263;29;20504;-76
2021/11/23 09:03:17;;;;;;;12.90;3.60;;;;;;;0.29;57.30;99724.31;4827395;29;20050;-75
2021/11/23 09:05:44;;;;;;;22.45;4.18;;;;;;;0.42;57.94;99735.97;4840898;29;20140;-76
2021/11/23 09:08:10;;;;;;;14.02;3.42;;;;;;;-0.07;58.39;99675.75;4876946;29;20080;-76
2021/11/23 09:10:40;;;;;;;14.20;3.42;;;;;;;0.07;59.33;99730.78;4874836;29;20125;-77
2021/11/23 09:13:13;;;;;;;19.33;3.70;;;;;;;0.35;58.37;99723.97;4856120;29;20562;-75
2021/11/23 09:15:40;;;;;;;21.98;3.90;;;;;;;1.98;54.61;99741.94;4857361;29;20053;-76
2021/11/23 09:18:09;;;;;;;9.82;3.03;;;;;;;0.81;56.37;99714.25;4873953;29;20125;-75
2021/11/23 09:20:36;;;;;;;15.43;3.13;;;;;;;0.96;55.66;99720.50;4872832;29;20061;-74
2021/11/23 09:23:05;;;;;;;17.52;3.47;;;;;;;0.60;57.17;99728.78;4851563;29;20154;-75
2021/11/23 09:25:31;;;;;;;8.77;2.70;;;;;;;0.24;57.61;99712.13;4842374;29;20057;-76
2021/11/23 09:28:00;;;;;;;10.57;2.85;;;;;;;0.07;57.42;99696.22;4873388;29;20053;-77
2021/11/23 09:30:27;;;;;;;11.10;2.53;;;;;;;-0.28;58.03;99675.09;4856879;29;20053;-75
2021/11/23 09:32:53;;;;;;;9.15;2.40;;;;;;;0.32;57.29;99724.13;4855409;29;20064;-75
2021/11/23 09:35:22;;;;;;;11.55;2.20;;;;;;;0.31;57.75;99725.94;4871539;29;20061;-76
2021/11/23 09:37:52;;;;;;;10.75;2.63;;;;;;;0.20;57.35;99705.25;4858045;29;20086;-76
2021/11/23 09:40:18;;;;;;;13.52;3.20;;;;;;;1.32;54.64;99700.66;4854795;29;20148;-77
2021/11/23 09:42:46;;;;;;;17.55;3.35;;;;;;;1.51;53.89;99722.56;4838158;29;20065;-77
2021/11/23 09:45:14;;;;;;;12.18;2.70;;;;;;;3.54;49.19;99716.59;4851975;29;20156;-75
2021/11/23 09:47:40;;;;;;;25.98;3.00;;;;;;;5.49;44.07;99711.38;4837573;29;20535;-76
2021/11/23 09:50:09;;;;;;;19.73;3.00;;;;;;;6.68;41.05;99713.63;4839153;29;20058;-75
2021/11/23 09:52:35;;;;;;;15.18;2.58;;;;;;;7.13;39.01;99695.56;4852015;29;20060;-74
2021/11/23 09:55:02;;;;;;;11.48;2.42;;;;;;;8.34;37.29;99706.69;4848331;29;20151;-76
2021/11/23 09:57:29;;;;;;;8.15;2.60;;;;;;;9.02;36.00;99708.72;4877807;29;20073;-75
2021/11/23 09:59:55;;;;;;;10.32;2.55;;;;;;;8.86;35.26;99709.28;4857887;29;20120;-76
2021/11/23 10:07:03;;;;;;;9.80;2.35;;;;;;;8.12;35.02;99671.88;4832257;29;20116;-78
2021/11/23 10:10:12;;;;;;;8.38;2.17;;;;;;;9.39;34.42;99704.34;4887930;29;20052;-76
2021/11/23 10:12:38;;;;;;;10.63;2.95;;;;;;;9.35;33.33;99673.25;4854112;29;20072;-78
2021/11/23 10:15:19;;;;;;;14.52;2.75;;;;;;;10.32;32.38;99683.84;4839427;29;20088;-76
2021/11/23 10:17:48;;;;;;;36.58;3.90;;;;;;;10.22;32.83;99693.81;4855869;29;20092;-76
2021/11/23 10:20:40;;;;;;;16.63;3.90;;;;;;;9.49;33.03;99692.69;4870322;29;20090;-77
2021/11/23 10:23:16;;;;;;;14.07;3.95;;;;;;;8.36;35.49;99707.38;4857453;29;20084;-77
2021/11/23 10:25:43;;;;;;;22.58;4.30;;;;;;;7.42;37.41;99705.69;4869733;29;20083;-75
2021/11/23 10:28:10;;;;;;;13.73;4.57;;;;;;;4.84;41.99;99699.28;4884736;29;20100;-77
2021/11/23 10:30:46;;;;;;;14.93;4.13;;;;;;;4.91;41.68;99670.22;4838653;29;20057;-76
2021/11/23 10:33:13;;;;;;;13.50;4.53;;;;;;;5.95;40.61;99717.69;4885883;29;20515;-76
2021/11/23 10:35:45;;;;;;;12.23;3.65;;;;;;;5.33;41.51;99705.44;4867719;29;20146;-76
2021/11/23 10:38:16;;;;;;;12.10;3.22;;;;;;;6.56;39.23;99706.59;4868847;29;20485;-76
2021/11/23 10:40:49;;;;;;;12.77;3.58;;;;;;;5.79;40.17;99715.34;4861304;29;20069;-77
2021/11/23 10:43:22;;;;;;;10.02;3.15;;;;;;;3.90;43.40;99690.94;4880026;29;20060;-76
2021/11/23 10:48:54;;;;;;;23.63;3.90;;;;;;;7.68;36.62;99695.44;4902129;29;20060;-75
2021/11/23 10:51:21;;;;;;;14.20;3.63;;;;;;;8.27;35.48;99702.81;4904287;29;20108;-75
2021/11/23 10:53:48;;;;;;;7.97;2.58;;;;;;;7.57;35.78;99642.53;4873279;29;20060;-76
2021/11/23 10:56:18;;;;;;;11.05;2.75;;;;;;;7.73;35.90;99671.66;4861245;29;20091;-75
2021/11/23 10:58:46;;;;;;;10.68;2.95;;;;;;;7.05;36.82;99681.03;4858669;29;20060;-75
2021/11/23 11:01:15;;;;;;;8.75;3.03;;;;;;;8.05;36.09;99692.22;4871530;29;20557;-74
2021/11/23 11:03:42;;;;;;;12.88;3.03;;;;;;;7.04;36.83;99668.59;4872317;29;20064;-76
2021/11/23 11:06:09;;;;;;;14.70;3.03;;;;;;;7.78;36.46;99680.16;4859000;29;20049;-75
2021/11/23 11:08:41;;;;;;;12.32;2.42;;;;;;;7.18;36.39;99696.03;4884465;29;20052;-76
2021/11/23 11:11:13;;;;;;;9.00;2.70;;;;;;;8.04;35.53;99682.44;4870337;29;20084;-76
2021/11/23 11:13:39;;;;;;;9.82;2.78;;;;;;;7.22;36.09;99683.19;4892164;29;20073;-77
2021/11/23 11:16:06;;;;;;;11.55;2.53;;;;;;;7.25;36.53;99677.56;4859349;29;20053;-76
2021/11/23 11:18:31;;;;;;;12.02;2.55;;;;;;;7.05;36.47;99643.41;4888841;29;20084;-76
2021/11/23 11:21:03;;;;;;;12.57;2.63;;;;;;;7.11;36.96;99688.59;4872126;29;20056;-75
2021/11/23 11:23:41;;;;;;;14.18;2.70;;;;;;;5.85;40.03;99701.44;4870296;29;20048;-73
2021/11/23 11:28:47;;;;;;;11.30;2.92;;;;;;;5.38;39.91;99654.19;4888663;29;20175;-75
2021/11/23 11:31:32;;;;;;;11.48;3.45;;;;;;;2.55;47.15;99705.38;4876749;29;20061;-76
2021/11/23 11:34:24;;;;;;;11.00;3.40;;;;;;;2.21;48.28;99688.03;4906800;29;20055;-76
2021/11/23 11:36:59;;;;;;;10.32;3.20;;;;;;;2.21;49.32;99700.50;4906699;29;20052;-76
2021/11/23 11:39:38;;;;;;;14.27;3.10;;;;;;;1.65;50.83;99709.28;4903192;29;20056;-75
2021/11/23 11:42:11;;;;;;;11.13;2.78;;;;;;;0.94;51.83;99653.19;4896632;29;20076;-75
2021/11/23 11:44:39;;;;;;;12.57;2.80;;;;;;;1.08;52.30;99703.81;4856134;29;20136;-75
2021/11/23 11:47:09;;;;;;;15.00;3.08;;;;;;;0.92;52.50;99687.03;4869423;29;20475;-75
2021/11/23 11:49:53;;;;;;;16.77;3.03;;;;;;;1.19;52.21;99706.69;4842203;29;20064;-75
2021/11/23 11:52:23;;;;;;;16.38;3.35;;;;;;;0.88;53.69;99685.50;4885779;29;20049;-76
2021/11/23 11:55:18;;;;;;;11.60;2.95;;;;;;;1.02;52.93;99705.97;4855005;29;20149;-76
2021/11/23 11:57:48;;;;;;;9.70;2.75;;;;;;;1.24;52.61;99705.56;4853734;29;20136;-76
2021/11/23 12:00:24;;;;;;;14.40;3.80;;;;;;;1.43;51.77;99707.06;4856191;29;20056;-75